sensor_id;sensor_type;location;lat;lon;timestamp;pressure;altitude;pressure_sealevel;temperature;humidity
55032;BME280;40928;51.076;7.950;2023-10-13T00:01:56;96899.88;;;15.16;100.00
55032;BME280;40928;51.076;7.950;2023-10-13T00:04:25;96876.75;;;15.05;100.00
55032;BME280;40928;51.076;7.950;2023-10-13T00:06:51;96900.16;;;15.10;100.00
55032;BME280;40928;51.076;7.950;2023-10-13T00:09:23;96895.84;;;15.09;100.00
55032;BME280;40928;51.076;7.950;2023-10-13T00:11:58;96901.72;;;15.11;100.00
55032;BME280;40928;51.076;7.950;2023-10-13T00:14:24;96895.56;;;15.05;100.00
55032;BME280;40928;51.076;7.950;2023-10-13T00:17:02;96892.34;;;15.03;100.00
55032;BME280;40928;51.076;7.950;2023-10-13T00:19:38;96888.84;;;15.07;100.00
55032;BME280;40928;51.076;7.950;2023-10-13T00:22:10;96883.19;;;15.04;100.00
55032;BME280;40928;51.076;7.950;2023-10-13T00:24:40;96881.84;;;15.06;100.00
55032;BME280;40928;51.076;7.950;2023-10-13T00:27:17;96881.31;;;15.04;100.00
55032;BME280;40928;51.076;7.950;2023-10-13T00:30:06;96880.50;;;15.09;100.00
55032;BME280;40928;51.076;7.950;2023-10-13T00:32:45;96877.53;;;15.11;100.00
55032;BME280;40928;51.076;7.950;2023-10-13T00:35:13;96878.09;;;15.07;100.00
55032;BME280;40928;51.076;7.950;2023-10-13T00:37:51;96888.84;;;15.07;100.00
55032;BME280;40928;51.076;7.950;2023-10-13T00:40:22;96872.44;;;15.14;100.00
55032;BME280;40928;51.076;7.950;2023-10-13T00:42:55;96862.75;;;15.13;100.00
55032;BME280;40928;51.076;7.950;2023-10-13T00:45:31;96873.78;;;15.06;100.00
55032;BME280;40928;51.076;7.950;2023-10-13T00:47:59;96874.63;;;15.02;100.00
55032;BME280;40928;51.076;7.950;2023-10-13T00:50:29;96866.53;;;15.02;100.00
55032;BME280;40928;51.076;7.950;2023-10-13T00:52:56;96865.44;;;15.03;100.00
55032;BME280;40928;51.076;7.950;2023-10-13T00:55:22;96857.66;;;15.01;100.00
55032;BME280;40928;51.076;7.950;2023-10-13T00:57:52;96855.25;;;15.00;100.00
55032;BME280;40928;51.076;7.950;2023-10-13T01:00:22;96857.94;;;15.00;100.00
55032;BME280;40928;51.076;7.950;2023-10-13T01:02:53;96866.81;;;15.00;100.00
55032;BME280;40928;51.076;7.950;2023-10-13T01:05:25;96849.84;;;15.05;100.00
55032;BME280;40928;51.076;7.950;2023-10-13T01:07:51;96852.28;;;15.01;100.00
55032;BME280;40928;51.076;7.950;2023-10-13T01:10:21;96845.28;;;15.00;100.00
55032;BME280;40928;51.076;7.950;2023-10-13T01:12:52;96838.56;;;15.03;100.00
55032;BME280;40928;51.076;7.950;2023-10-13T01:15:18;96842.59;;;15.05;100.00
55032;BME280;40928;51.076;7.950;2023-10-13T01:17:47;96841.53;;;15.01;100.00
55032;BME280;40928;51.076;7.950;2023-10-13T01:20:14;96847.44;;;15.09;100.00
55032;BME280;40928;51.076;7.950;2023-10-13T01:22:47;96841.25;;;15.03;100.00
55032;BME280;40928;51.076;7.950;2023-10-13T01:25:25;96847.19;;;14.95;100.00
55032;BME280;40928;51.076;7.950;2023-10-13T01:27:52;96835.63;;;14.94;100.00
55032;BME280;40928;51.076;7.950;2023-10-13T01:30:18;96845.28;;;15.00;100.00
55032;BME280;40928;51.076;7.950;2023-10-13T01:32:52;96839.38;;;14.98;100.00
55032;BME280;40928;51.076;7.950;2023-10-13T01:35:19;96829.41;;;15.04;100.00
55032;BME280;40928;51.076;7.950;2023-10-13T01:37:51;96830.22;;;14.99;100.00
55032;BME280;40928;51.076;7.950;2023-10-13T01:40:17;96827.28;;;14.96;100.00
55032;BME280;40928;51.076;7.950;2023-10-13T01:42:46;96832.13;;;14.99;100.00
55032;BME280;40928;51.076;7.950;2023-10-13T01:45:12;96823.75;;;15.11;100.00
55032;BME280;40928;51.076;7.950;2023-10-13T01:47:40;96825.69;;;15.00;100.00
55032;BME280;40928;51.076;7.950;2023-10-13T01:50:07;96818.16;;;14.97;100.00
55032;BME280;40928;51.076;7.950;2023-10-13T01:52:44;96821.09;;;15.00;100.00
55032;BME280;40928;51.076;7.950;2023-10-13T01:55:10;96817.88;;;15.03;100.00
55032;BME280;40928;51.076;7.950;2023-10-13T01:57:37;96824.59;;;14.96;100.00
55032;BME280;40928;51.076;7.950;2023-10-13T02:00:03;96808.72;;;14.99;100.00
55032;BME280;40928;51.076;7.950;2023-10-13T02:02:37;96805.53;;;14.92;100.00
55032;BME280;40928;51.076;7.950;2023-10-13T02:05:10;96796.34;;;15.03;100.00
55032;BME280;40928;51.076;7.950;2023-10-13T02:07:37;96800.13;;;14.97;100.00
55032;BME280;40928;51.076;7.950;2023-10-13T02:10:05;96799.88;;;14.94;100.00
55032;BME280;40928;51.076;7.950;2023-10-13T02:12:31;96796.88;;;15.00;100.00
55032;BME280;40928;51.076;7.950;2023-10-13T02:15:11;96782.66;;;14.95;100.00
55032;BME280;40928;51.076;7.950;2023-10-13T02:17:39;96790.47;;;14.91;100.00
55032;BME280;40928;51.076;7.950;2023-10-13T02:20:09;96775.16;;;14.86;100.00
55032;BME280;40928;51.076;7.950;2023-10-13T02:22:40;96789.66;;;15.01;100.00
55032;BME280;40928;51.076;7.950;2023-10-13T02:25:20;96779.69;;;14.96;100.00
55032;BME280;40928;51.076;7.950;2023-10-13T02:28:01;96784.53;;;14.99;100.00
55032;BME280;40928;51.076;7.950;2023-10-13T02:30:27;96773.53;;;14.96;100.00
55032;BME280;40928;51.076;7.950;2023-10-13T02:32:54;96768.44;;;14.94;100.00
55032;BME280;40928;51.076;7.950;2023-10-13T02:35:21;96765.75;;;14.94;100.00
55032;BME280;40928;51.076;7.950;2023-10-13T02:37:56;96751.75;;;14.92;100.00
55032;BME280;40928;51.076;7.950;2023-10-13T02:40:24;96753.09;;;14.95;100.00
55032;BME280;40928;51.076;7.950;2023-10-13T02:42:50;96747.41;;;14.96;100.00
55032;BME280;40928;51.076;7.950;2023-10-13T02:45:16;96743.94;;;15.01;100.00
55032;BME280;40928;51.076;7.950;2023-10-13T02:47:43;96744.97;;;15.05;100.00
55032;BME280;40928;51.076;7.950;2023-10-13T02:50:09;96737.16;;;15.14;100.00
55032;BME280;40928;51.076;7.950;2023-10-13T02:52:38;96729.13;;;15.09;100.00
55032;BME280;40928;51.076;7.950;2023-10-13T02:55:07;96722.38;;;15.11;100.00
55032;BME280;40928;51.076;7.950;2023-10-13T02:57:39;96734.50;;;15.09;100.00
55032;BME280;40928;51.076;7.950;2023-10-13T03:00:07;96731.22;;;15.12;100.00
55032;BME280;40928;51.076;7.950;2023-10-13T03:02:38;96723.75;;;15.09;100.00
55032;BME280;40928;51.076;7.950;2023-10-13T03:05:10;96724.53;;;15.14;100.00
55032;BME280;40928;51.076;7.950;2023-10-13T03:07:39;96724.53;;;15.09;100.00
55032;BME280;40928;51.076;7.950;2023-10-13T03:10:08;96733.66;;;15.13;100.00
55032;BME280;40928;51.076;7.950;2023-10-13T03:12:41;96721.56;;;15.11;100.00
55032;BME280;40928;51.076;7.950;2023-10-13T03:15:07;96719.63;;;15.21;100.00
55032;BME280;40928;51.076;7.950;2023-10-13T03:17:54;96711.31;;;15.18;100.00
55032;BME280;40928;51.076;7.950;2023-10-13T03:20:20;96707.03;;;15.12;100.00
55032;BME280;40928;51.076;7.950;2023-10-13T03:23:06;96710.25;;;15.14;100.00
55032;BME280;40928;51.076;7.950;2023-10-13T03:25:35;96700.84;;;15.11;100.00
55032;BME280;40928;51.076;7.950;2023-10-13T03:28:08;96697.03;;;15.22;100.00
55032;BME280;40928;51.076;7.950;2023-10-13T03:30:39;96694.63;;;15.21;100.00
55032;BME280;40928;51.076;7.950;2023-10-13T03:33:08;96694.66;;;15.16;100.00
55032;BME280;40928;51.076;7.950;2023-10-13T03:35:50;96694.13;;;15.14;100.00
55032;BME280;40928;51.076;7.950;2023-10-13T03:38:21;96682.75;;;15.27;100.00
55032;BME280;40928;51.076;7.950;2023-10-13T03:40:52;96692.19;;;15.19;100.00
55032;BME280;40928;51.076;7.950;2023-10-13T03:43:38;96689.50;;;15.25;100.00
55032;BME280;40928;51.076;7.950;2023-10-13T03:46:34;96687.03;;;15.33;100.00
55032;BME280;40928;51.076;7.950;2023-10-13T03:49:02;96678.97;;;15.33;100.00
55032;BME280;40928;51.076;7.950;2023-10-13T03:51:31;96670.88;;;15.33;100.00
55032;BME280;40928;51.076;7.950;2023-10-13T03:53:58;96672.81;;;15.28;100.00
55032;BME280;40928;51.076;7.950;2023-10-13T03:56:25;96670.66;;;15.25;100.00
55032;BME280;40928;51.076;7.950;2023-10-13T03:59:04;96667.69;;;15.26;100.00
55032;BME280;40928;51.076;7.950;2023-10-13T04:01:36;96664.22;;;15.26;100.00
55032;BME280;40928;51.076;7.950;2023-10-13T04:04:17;96668.19;;;15.33;100.00
55032;BME280;40928;51.076;7.950;2023-10-13T04:07:09;96659.56;;;15.36;100.00
55032;BME280;40928;51.076;7.950;2023-10-13T04:09:38;96657.44;;;15.33;100.00
55032;BME280;40928;51.076;7.950;2023-10-13T04:12:06;96646.91;;;15.37;100.00
55032;BME280;40928;51.076;7.950;2023-10-13T04:14:42;96649.88;;;15.41;100.00
55032;BME280;40928;51.076;7.950;2023-10-13T04:17:23;96643.03;;;15.53;100.00
55032;BME280;40928;51.076;7.950;2023-10-13T04:19:54;96643.34;;;15.52;100.00
55032;BME280;40928;51.076;7.950;2023-10-13T04:25:24;96629.31;;;15.55;100.00
55032;BME280;40928;51.076;7.950;2023-10-13T04:28:11;96629.81;;;15.57;100.00
55032;BME280;40928;51.076;7.950;2023-10-13T04:30:44;96624.50;;;15.52;100.00
55032;BME280;40928;51.076;7.950;2023-10-13T04:33:23;96630.28;;;15.70;100.00
55032;BME280;40928;51.076;7.950;2023-10-13T04:36:12;96615.22;;;15.68;100.00
55032;BME280;40928;51.076;7.950;2023-10-13T04:38:58;96612.28;;;15.65;100.00
55032;BME280;40928;51.076;7.950;2023-10-13T04:41:30;96612.00;;;15.66;100.00
55032;BME280;40928;51.076;7.950;2023-10-13T04:44:17;96611.91;;;15.77;100.00
55032;BME280;40928;51.076;7.950;2023-10-13T04:46:56;96599.34;;;15.67;100.00
55032;BME280;40928;51.076;7.950;2023-10-13T04:49:30;96608.81;;;15.59;100.00
55032;BME280;40928;51.076;7.950;2023-10-13T04:52:09;96599.72;;;15.55;100.00
55032;BME280;40928;51.076;7.950;2023-10-13T04:54:36;96605.91;;;15.56;100.00
55032;BME280;40928;51.076;7.950;2023-10-13T04:57:16;96596.44;;;15.58;100.00
55032;BME280;40928;51.076;7.950;2023-10-13T04:59:47;96592.47;;;15.50;100.00
55032;BME280;40928;51.076;7.950;2023-10-13T05:07:47;96600.38;;;15.71;100.00
55032;BME280;40928;51.076;7.950;2023-10-13T05:13:01;96613.38;;;15.64;100.00
55032;BME280;40928;51.076;7.950;2023-10-13T05:15:50;96603.94;;;15.66;100.00
55032;BME280;40928;51.076;7.950;2023-10-13T05:18:35;96594.47;;;15.69;100.00
55032;BME280;40928;51.076;7.950;2023-10-13T05:21:20;96589.91;;;15.70;100.00
55032;BME280;40928;51.076;7.950;2023-10-13T05:24:05;96591.47;;;15.76;100.00
55032;BME280;40928;51.076;7.950;2023-10-13T05:26:51;96592.88;;;15.68;100.00
55032;BME280;40928;51.076;7.950;2023-10-13T05:29:39;96583.19;;;15.67;100.00
55032;BME280;40928;51.076;7.950;2023-10-13T05:32:23;96579.94;;;15.70;100.00
55032;BME280;40928;51.076;7.950;2023-10-13T05:35:07;96575.63;;;15.69;100.00
55032;BME280;40928;51.076;7.950;2023-10-13T05:37:52;96576.38;;;15.75;100.00
55032;BME280;40928;51.076;7.950;2023-10-13T05:40:36;96578.47;;;15.83;100.00
55032;BME280;40928;51.076;7.950;2023-10-13T05:43:21;96576.34;;;15.85;100.00
55032;BME280;40928;51.076;7.950;2023-10-13T05:46:05;96579.56;;;15.82;100.00
55032;BME280;40928;51.076;7.950;2023-10-13T05:48:50;96583.00;;;15.93;100.00
55032;BME280;40928;51.076;7.950;2023-10-13T05:51:30;96576.56;;;15.83;100.00
55032;BME280;40928;51.076;7.950;2023-10-13T05:54:08;96579.38;;;15.73;100.00
55032;BME280;40928;51.076;7.950;2023-10-13T05:56:43;96583.94;;;15.73;100.00
55032;BME280;40928;51.076;7.950;2023-10-13T05:59:28;96579.16;;;15.70;100.00
55032;BME280;40928;51.076;7.950;2023-10-13T06:02:14;96581.84;;;15.70;100.00
55032;BME280;40928;51.076;7.950;2023-10-13T06:05:17;96584.78;;;15.68;100.00
55032;BME280;40928;51.076;7.950;2023-10-13T06:08:01;96586.16;;;15.65;100.00
55032;BME280;40928;51.076;7.950;2023-10-13T06:10:47;96578.31;;;15.69;100.00
55032;BME280;40928;51.076;7.950;2023-10-13T06:13:32;96574.75;;;15.79;100.00
55032;BME280;40928;51.076;7.950;2023-10-13T06:16:17;96577.94;;;15.86;100.00
55032;BME280;40928;51.076;7.950;2023-10-13T06:19:02;96571.72;;;15.91;100.00
55032;BME280;40928;51.076;7.950;2023-10-13T06:21:47;96568.78;;;15.87;100.00
55032;BME280;40928;51.076;7.950;2023-10-13T06:24:31;96568.50;;;15.89;100.00
55032;BME280;40928;51.076;7.950;2023-10-13T06:27:16;96569.28;;;15.89;100.00
55032;BME280;40928;51.076;7.950;2023-10-13T06:30:04;96571.94;;;15.94;100.00
55032;BME280;40928;51.076;7.950;2023-10-13T06:32:30;96556.63;;;15.90;100.00
55032;BME280;40928;51.076;7.950;2023-10-13T06:34:57;96562.31;;;15.88;100.00
55032;BME280;40928;51.076;7.950;2023-10-13T06:37:48;96558.50;;;15.89;100.00
55032;BME280;40928;51.076;7.950;2023-10-13T06:40:14;96574.63;;;15.94;100.00
55032;BME280;40928;51.076;7.950;2023-10-13T06:42:52;96566.56;;;15.94;100.00
55032;BME280;40928;51.076;7.950;2023-10-13T06:45:19;96560.91;;;15.96;100.00
55032;BME280;40928;51.076;7.950;2023-10-13T06:47:46;96575.72;;;15.93;100.00
55032;BME280;40928;51.076;7.950;2023-10-13T06:50:13;96580.44;;;16.07;100.00
55032;BME280;40928;51.076;7.950;2023-10-13T06:52:42;96579.88;;;16.10;100.00
55032;BME280;40928;51.076;7.950;2023-10-13T06:55:09;96565.78;;;16.18;100.00
55032;BME280;40928;51.076;7.950;2023-10-13T06:57:45;96587.25;;;16.23;100.00
55032;BME280;40928;51.076;7.950;2023-10-13T07:00:12;96591.28;;;16.26;100.00
55032;BME280;40928;51.076;7.950;2023-10-13T07:02:55;96587.00;;;16.25;100.00
55032;BME280;40928;51.076;7.950;2023-10-13T07:05:35;96586.16;;;16.24;100.00
55032;BME280;40928;51.076;7.950;2023-10-13T07:08:01;96585.19;;;16.15;100.00
55032;BME280;40928;51.076;7.950;2023-10-13T07:10:30;96581.34;;;16.21;100.00
55032;BME280;40928;51.076;7.950;2023-10-13T07:12:58;96584.97;;;16.36;100.00
55032;BME280;40928;51.076;7.950;2023-10-13T07:15:26;96596.34;;;16.33;100.00
55032;BME280;40928;51.076;7.950;2023-10-13T07:17:54;96597.59;;;16.40;100.00
55032;BME280;40928;51.076;7.950;2023-10-13T07:20:27;96597.88;;;16.39;100.00
55032;BME280;40928;51.076;7.950;2023-10-13T07:22:53;96579.66;;;16.31;100.00
55032;BME280;40928;51.076;7.950;2023-10-13T07:25:34;96593.72;;;16.22;100.00
55032;BME280;40928;51.076;7.950;2023-10-13T07:28:10;96588.88;;;16.24;100.00
55032;BME280;40928;51.076;7.950;2023-10-13T07:30:36;96595.69;;;16.41;100.00
55032;BME280;40928;51.076;7.950;2023-10-13T07:33:16;96589.09;;;16.28;100.00
55032;BME280;40928;51.076;7.950;2023-10-13T07:35:59;96585.59;;;16.27;100.00
55032;BME280;40928;51.076;7.950;2023-10-13T07:38:26;96585.91;;;16.26;100.00
55032;BME280;40928;51.076;7.950;2023-10-13T07:40:56;96584.00;;;16.26;100.00
55032;BME280;40928;51.076;7.950;2023-10-13T07:43:32;96582.88;;;16.33;100.00
55032;BME280;40928;51.076;7.950;2023-10-13T07:45:58;96581.66;;;16.44;100.00
55032;BME280;40928;51.076;7.950;2023-10-13T07:48:25;96567.88;;;16.46;100.00
55032;BME280;40928;51.076;7.950;2023-10-13T07:53:29;96569.03;;;16.39;100.00
55032;BME280;40928;51.076;7.950;2023-10-13T07:56:00;96582.16;;;16.46;100.00
55032;BME280;40928;51.076;7.950;2023-10-13T07:58:30;96561.91;;;16.49;100.00
55032;BME280;40928;51.076;7.950;2023-10-13T08:00:57;96556.31;;;16.45;100.00
55032;BME280;40928;51.076;7.950;2023-10-13T08:03:35;96552.75;;;16.50;100.00
55032;BME280;40928;51.076;7.950;2023-10-13T08:06:11;96558.88;;;16.55;100.00
55032;BME280;40928;51.076;7.950;2023-10-13T08:08:38;96552.13;;;16.58;100.00
55032;BME280;40928;51.076;7.950;2023-10-13T08:11:08;96537.75;;;16.63;100.00
55032;BME280;40928;51.076;7.950;2023-10-13T08:13:54;96533.16;;;16.63;100.00
55032;BME280;40928;51.076;7.950;2023-10-13T08:16:23;96535.06;;;16.63;100.00
55032;BME280;40928;51.076;7.950;2023-10-13T08:18:50;96529.59;;;16.68;100.00
55032;BME280;40928;51.076;7.950;2023-10-13T08:21:16;96527.13;;;16.71;100.00
55032;BME280;40928;51.076;7.950;2023-10-13T08:23:43;96535.44;;;16.75;100.00
55032;BME280;40928;51.076;7.950;2023-10-13T08:26:22;96533.69;;;16.84;100.00
55032;BME280;40928;51.076;7.950;2023-10-13T08:29:07;96529.38;;;16.83;100.00
55032;BME280;40928;51.076;7.950;2023-10-13T08:31:51;96532.91;;;16.84;100.00
55032;BME280;40928;51.076;7.950;2023-10-13T08:34:36;96525.69;;;16.79;100.00
55032;BME280;40928;51.076;7.950;2023-10-13T08:37:08;96527.50;;;16.84;100.00
55032;BME280;40928;51.076;7.950;2023-10-13T08:39:50;96512.72;;;16.81;100.00
55032;BME280;40928;51.076;7.950;2023-10-13T08:45:15;96521.69;;;16.96;100.00
55032;BME280;40928;51.076;7.950;2023-10-13T08:47:48;96513.44;;;16.87;100.00
55032;BME280;40928;51.076;7.950;2023-10-13T08:50:33;96510.13;;;16.90;100.00
55032;BME280;40928;51.076;7.950;2023-10-13T08:53:27;96501.13;;;17.00;100.00
55032;BME280;40928;51.076;7.950;2023-10-13T08:56:09;96508.47;;;16.94;100.00
55032;BME280;40928;51.076;7.950;2023-10-13T08:58:47;96501.22;;;16.95;100.00
55032;BME280;40928;51.076;7.950;2023-10-13T09:04:07;96499.91;;;17.11;100.00
55032;BME280;40928;51.076;7.950;2023-10-13T09:07:08;96501.91;;;17.19;100.00
55032;BME280;40928;51.076;7.950;2023-10-13T09:09:50;96481.03;;;17.25;100.00
55032;BME280;40928;51.076;7.950;2023-10-13T09:12:20;96490.94;;;17.30;100.00
55032;BME280;40928;51.076;7.950;2023-10-13T09:14:51;96498.16;;;17.34;100.00
55032;BME280;40928;51.076;7.950;2023-10-13T09:17:24;96499.41;;;17.42;100.00
55032;BME280;40928;51.076;7.950;2023-10-13T09:19:59;96512.28;;;17.45;100.00
55032;BME280;40928;51.076;7.950;2023-10-13T09:22:46;96496.06;;;17.45;100.00
55032;BME280;40928;51.076;7.950;2023-10-13T09:25:41;96491.78;;;17.44;100.00
55032;BME280;40928;51.076;7.950;2023-10-13T09:28:20;96507.50;;;17.56;100.00
55032;BME280;40928;51.076;7.950;2023-10-13T09:30:52;96504.69;;;17.47;100.00
55032;BME280;40928;51.076;7.950;2023-10-13T09:33:23;96503.97;;;17.42;100.00
55032;BME280;40928;51.076;7.950;2023-10-13T09:36:07;96505.50;;;17.48;100.00
55032;BME280;40928;51.076;7.950;2023-10-13T09:38:36;96487.19;;;17.45;100.00
55032;BME280;40928;51.076;7.950;2023-10-13T09:41:07;96481.25;;;17.90;100.00
55032;BME280;40928;51.076;7.950;2023-10-13T09:43:51;96489.38;;;18.18;100.00
55032;BME280;40928;51.076;7.950;2023-10-13T09:46:21;96476.59;;;18.60;100.00
55032;BME280;40928;51.076;7.950;2023-10-13T09:48:50;96482.78;;;19.34;100.00
55032;BME280;40928;51.076;7.950;2023-10-13T09:51:40;96492.59;;;20.16;100.00
55032;BME280;40928;51.076;7.950;2023-10-13T09:54:34;96485.06;;;21.14;100.00
55032;BME280;40928;51.076;7.950;2023-10-13T09:57:10;96485.38;;;21.22;100.00
55032;BME280;40928;51.076;7.950;2023-10-13T09:59:52;96498.16;;;21.04;100.00
55032;BME280;40928;51.076;7.950;2023-10-13T10:02:22;96489.97;;;20.60;100.00
55032;BME280;40928;51.076;7.950;2023-10-13T10:04:57;96479.31;;;20.05;100.00
55032;BME280;40928;51.076;7.950;2023-10-13T10:07:42;96491.75;;;19.75;100.00
55032;BME280;40928;51.076;7.950;2023-10-13T10:10:21;96475.44;;;19.35;100.00
55032;BME280;40928;51.076;7.950;2023-10-13T10:12:49;96461.38;;;19.01;100.00
55032;BME280;40928;51.076;7.950;2023-10-13T10:15:33;96472.09;;;18.92;100.00
55032;BME280;40928;51.076;7.950;2023-10-13T10:18:00;96471.72;;;18.85;100.00
55032;BME280;40928;51.076;7.950;2023-10-13T10:20:36;96467.03;;;18.77;100.00
55032;BME280;40928;51.076;7.950;2023-10-13T10:23:08;96476.03;;;18.49;100.00
55032;BME280;40928;51.076;7.950;2023-10-13T10:25:48;96469.00;;;18.62;100.00
55032;BME280;40928;51.076;7.950;2023-10-13T10:28:15;96462.03;;;19.07;100.00
55032;BME280;40928;51.076;7.950;2023-10-13T10:30:42;96459.88;;;18.95;100.00
55032;BME280;40928;51.076;7.950;2023-10-13T10:33:11;96456.84;;;19.73;100.00
55032;BME280;40928;51.076;7.950;2023-10-13T10:35:57;96454.88;;;20.90;100.00
55032;BME280;40928;51.076;7.950;2023-10-13T10:38:25;96449.50;;;21.55;100.00
55032;BME280;40928;51.076;7.950;2023-10-13T10:41:06;96445.25;;;22.23;100.00
55032;BME280;40928;51.076;7.950;2023-10-13T10:46:12;96433.75;;;23.56;100.00
55032;BME280;40928;51.076;7.950;2023-10-13T10:48:38;96433.25;;;24.66;100.00
55032;BME280;40928;51.076;7.950;2023-10-13T10:51:09;96424.41;;;24.04;100.00
55032;BME280;40928;51.076;7.950;2023-10-13T10:53:48;96432.50;;;23.20;100.00
55032;BME280;40928;51.076;7.950;2023-10-13T10:56:17;96440.25;;;22.76;100.00
55032;BME280;40928;51.076;7.950;2023-10-13T10:58:54;96429.84;;;22.05;100.00
55032;BME280;40928;51.076;7.950;2023-10-13T11:01:32;96438.44;;;21.78;100.00
55032;BME280;40928;51.076;7.950;2023-10-13T11:04:13;96433.09;;;21.90;100.00
55032;BME280;40928;51.076;7.950;2023-10-13T11:06:56;96432.56;;;21.67;100.00
55032;BME280;40928;51.076;7.950;2023-10-13T11:09:30;96425.94;;;21.85;100.00
55032;BME280;40928;51.076;7.950;2023-10-13T11:12:16;96427.03;;;21.93;100.00
55032;BME280;40928;51.076;7.950;2023-10-13T11:15:05;96421.94;;;21.83;100.00
55032;BME280;40928;51.076;7.950;2023-10-13T11:17:39;96421.28;;;21.86;100.00
55032;BME280;40928;51.076;7.950;2023-10-13T11:20:13;96427.53;;;22.16;100.00
55032;BME280;40928;51.076;7.950;2023-10-13T11:23:10;96412.75;;;21.66;100.00
55032;BME280;40928;51.076;7.950;2023-10-13T11:25:36;96420.31;;;21.43;100.00
55032;BME280;40928;51.076;7.950;2023-10-13T11:28:16;96402.66;;;21.10;100.00
55032;BME280;40928;51.076;7.950;2023-10-13T11:30:44;96400.13;;;21.05;100.00
55032;BME280;40928;51.076;7.950;2023-10-13T11:33:22;96386.22;;;21.16;100.00
55032;BME280;40928;51.076;7.950;2023-10-13T11:35:51;96394.84;;;21.18;100.00
55032;BME280;40928;51.076;7.950;2023-10-13T11:41:03;96380.53;;;21.38;100.00
55032;BME280;40928;51.076;7.950;2023-10-13T11:43:44;96375.69;;;21.53;100.00
55032;BME280;40928;51.076;7.950;2023-10-13T11:46:13;96392.97;;;21.48;100.00
55032;BME280;40928;51.076;7.950;2023-10-13T11:48:43;96378.88;;;21.07;100.00
55032;BME280;40928;51.076;7.950;2023-10-13T11:51:13;96380.97;;;20.93;100.00
55032;BME280;40928;51.076;7.950;2023-10-13T11:53:58;96367.13;;;20.77;100.00
55032;BME280;40928;51.076;7.950;2023-10-13T11:56:24;96377.00;;;20.64;100.00
55032;BME280;40928;51.076;7.950;2023-10-13T11:58:50;96365.63;;;21.14;100.00
55032;BME280;40928;51.076;7.950;2023-10-13T12:01:17;96375.09;;;21.38;100.00
55032;BME280;40928;51.076;7.950;2023-10-13T12:03:50;96354.94;;;21.87;100.00
55032;BME280;40928;51.076;7.950;2023-10-13T12:06:35;96366.03;;;22.54;100.00
55032;BME280;40928;51.076;7.950;2023-10-13T12:09:10;96367.63;;;22.55;100.00
55032;BME280;40928;51.076;7.950;2023-10-13T12:11:50;96359.16;;;22.27;100.00
55032;BME280;40928;51.076;7.950;2023-10-13T12:14:17;96354.31;;;22.54;100.00
55032;BME280;40928;51.076;7.950;2023-10-13T12:17:04;96358.47;;;23.06;100.00
55032;BME280;40928;51.076;7.950;2023-10-13T12:19:30;96349.03;;;22.57;100.00
55032;BME280;40928;51.076;7.950;2023-10-13T12:21:57;96356.78;;;22.25;100.00
55032;BME280;40928;51.076;7.950;2023-10-13T12:24:24;96358.69;;;21.73;100.00
55032;BME280;40928;51.076;7.950;2023-10-13T12:27:07;96356.75;;;21.35;100.00
55032;BME280;40928;51.076;7.950;2023-10-13T12:29:48;96352.53;;;21.17;100.00
55032;BME280;40928;51.076;7.950;2023-10-13T12:32:14;96348.59;;;20.79;100.00
55032;BME280;40928;51.076;7.950;2023-10-13T12:34:46;96343.97;;;20.44;100.00
55032;BME280;40928;51.076;7.950;2023-10-13T12:37:30;96338.25;;;20.37;100.00
55032;BME280;40928;51.076;7.950;2023-10-13T12:40:06;96326.09;;;20.17;100.00
55032;BME280;40928;51.076;7.950;2023-10-13T12:42:51;96317.69;;;20.18;100.00
55032;BME280;40928;51.076;7.950;2023-10-13T12:45:39;96320.22;;;20.15;100.00
55032;BME280;40928;51.076;7.950;2023-10-13T12:48:23;96323.41;;;20.26;100.00
55032;BME280;40928;51.076;7.950;2023-10-13T12:51:08;96321.16;;;20.36;100.00
55032;BME280;40928;51.076;7.950;2023-10-13T12:53:55;96319.91;;;20.34;100.00
55032;BME280;40928;51.076;7.950;2023-10-13T12:56:21;96316.22;;;20.47;100.00
55032;BME280;40928;51.076;7.950;2023-10-13T12:58:54;96312.88;;;22.14;100.00
55032;BME280;40928;51.076;7.950;2023-10-13T13:01:21;96307.28;;;22.32;100.00
55032;BME280;40928;51.076;7.950;2023-10-13T13:03:47;96301.59;;;22.25;100.00
55032;BME280;40928;51.076;7.950;2023-10-13T13:06:17;96292.94;;;21.50;100.00
55032;BME280;40928;51.076;7.950;2023-10-13T13:08:44;96305.31;;;21.39;100.00
55032;BME280;40928;51.076;7.950;2023-10-13T13:11:10;96321.56;;;21.09;100.00
55032;BME280;40928;51.076;7.950;2023-10-13T13:13:37;96311.56;;;20.83;100.00
55032;BME280;40928;51.076;7.950;2023-10-13T13:16:03;96295.59;;;20.73;100.00
55032;BME280;40928;51.076;7.950;2023-10-13T13:18:33;96293.56;;;20.61;100.00
55032;BME280;40928;51.076;7.950;2023-10-13T13:21:00;96293.75;;;20.38;100.00
55032;BME280;40928;51.076;7.950;2023-10-13T13:23:27;96297.59;;;20.37;100.00
55032;BME280;40928;51.076;7.950;2023-10-13T13:25:53;96297.09;;;20.35;100.00
55032;BME280;40928;51.076;7.950;2023-10-13T13:28:19;96279.56;;;20.23;100.00
55032;BME280;40928;51.076;7.950;2023-10-13T13:30:45;96280.22;;;20.20;100.00
55032;BME280;40928;51.076;7.950;2023-10-13T13:33:16;96285.44;;;20.26;100.00
55032;BME280;40928;51.076;7.950;2023-10-13T13:35:42;96278.63;;;20.19;100.00
55032;BME280;40928;51.076;7.950;2023-10-13T13:38:09;96284.50;;;20.39;100.00
55032;BME280;40928;51.076;7.950;2023-10-13T13:41:00;96272.50;;;20.40;100.00
55032;BME280;40928;51.076;7.950;2023-10-13T13:43:34;96274.28;;;20.36;100.00
55032;BME280;40928;51.076;7.950;2023-10-13T13:46:04;96266.78;;;20.33;100.00
55032;BME280;40928;51.076;7.950;2023-10-13T13:48:37;96276.19;;;20.18;100.00
55032;BME280;40928;51.076;7.950;2023-10-13T13:51:04;96276.06;;;20.14;100.00
55032;BME280;40928;51.076;7.950;2023-10-13T13:53:31;96268.72;;;20.06;100.00